createdAt,value
2019-02-25T00:01:15.334Z,9.66
2019-02-25T00:05:15.341Z,9.64
2019-02-25T00:07:15.353Z,9.62
2019-02-25T00:13:15.419Z,9.61
2019-02-25T00:15:20.056Z,9.59
2019-02-25T00:19:15.401Z,9.58
2019-02-25T00:21:15.408Z,9.57
2019-02-25T00:25:15.417Z,9.52
2019-02-25T00:27:15.427Z,9.51
2019-02-25T00:31:15.402Z,9.49
2019-02-25T00:33:15.412Z,9.50
2019-02-25T00:39:15.442Z,9.49
2019-02-25T00:41:15.436Z,9.47
2019-02-25T00:45:15.428Z,9.45
2019-02-25T00:47:15.436Z,9.42
2019-02-25T00:51:15.464Z,9.43
2019-02-25T00:53:15.458Z,9.38
2019-02-25T00:57:15.466Z,9.40
2019-02-25T00:59:15.493Z,9.37
2019-02-25T01:03:15.474Z,9.39
2019-02-25T01:05:15.477Z,9.33
2019-02-25T01:09:15.490Z,9.33
2019-02-25T01:11:16.284Z,9.34
2019-02-25T01:15:16.518Z,9.32
2019-02-25T01:17:20.033Z,9.31
2019-02-25T01:21:15.494Z,9.24
2019-02-25T01:23:15.523Z,9.27
2019-02-25T01:27:15.520Z,9.23
2019-02-25T01:29:15.504Z,9.24
2019-02-25T01:33:15.527Z,9.21
2019-02-25T01:35:15.556Z,9.19
2019-02-25T01:39:15.552Z,9.18
2019-02-25T01:41:20.180Z,9.16
2019-02-25T01:45:15.556Z,9.15
2019-02-25T01:47:15.556Z,9.13
2019-02-25T01:51:15.565Z,9.11
2019-02-25T01:53:15.564Z,9.11
2019-02-25T01:57:15.583Z,9.09
2019-02-25T01:59:15.571Z,9.07
2019-02-25T02:03:15.608Z,9.06
2019-02-25T02:05:15.610Z,9.04
2019-02-25T02:09:15.623Z,9.00
2019-02-25T02:11:15.615Z,9.00
2019-02-25T02:15:15.666Z,9.00
2019-02-25T02:17:15.648Z,8.95
2019-02-25T02:21:15.689Z,8.96
2019-02-25T02:23:23.093Z,8.94
2019-02-25T02:27:15.683Z,8.91
2019-02-25T02:29:20.259Z,8.90
2019-02-25T02:33:15.686Z,8.89
2019-02-25T02:35:18.021Z,8.88
2019-02-25T02:39:15.689Z,8.85
2019-02-25T02:41:15.721Z,8.83
2019-02-25T02:45:19.432Z,8.84
2019-02-25T02:47:15.710Z,8.80
2019-02-25T02:51:15.723Z,8.79
2019-02-25T02:53:20.235Z,8.77
2019-02-25T02:59:17.544Z,8.77
2019-02-25T03:01:15.754Z,8.76
2019-02-25T03:05:15.737Z,8.74
2019-02-25T03:07:39.099Z,8.72
2019-02-25T03:11:18.857Z,8.69
2019-02-25T03:13:15.736Z,8.66
2019-02-25T03:17:15.755Z,8.67
2019-02-25T03:19:15.757Z,8.66
2019-02-25T03:23:15.769Z,8.65
2019-02-25T03:25:15.745Z,8.63
2019-02-25T03:29:15.766Z,8.61
2019-02-25T03:31:15.801Z,8.62
2019-02-25T03:35:15.782Z,8.59
2019-02-25T03:37:15.805Z,8.57
2019-02-25T03:43:15.809Z,8.54
2019-02-25T03:45:15.840Z,8.53
2019-02-25T03:49:15.878Z,8.52
2019-02-25T03:51:15.806Z,8.50
2019-02-25T03:55:15.825Z,8.48
2019-02-25T03:57:15.836Z,8.46
2019-02-25T04:01:15.828Z,8.43
2019-02-25T04:03:15.823Z,8.43
2019-02-25T04:07:15.830Z,8.43
2019-02-25T04:09:15.835Z,8.42
2019-02-25T04:13:15.830Z,8.39
2019-02-25T04:15:15.834Z,8.39
2019-02-25T04:21:21.040Z,8.34
2019-02-25T04:23:15.873Z,8.34
2019-02-25T04:27:20.401Z,8.33
2019-02-25T04:29:15.869Z,8.34
2019-02-25T04:33:15.886Z,8.29
2019-02-25T04:35:15.878Z,8.29
2019-02-25T04:39:15.894Z,8.25
2019-02-25T04:41:15.870Z,8.26
2019-02-25T04:45:21.099Z,8.21
2019-02-25T04:47:15.920Z,8.23
2019-02-25T04:51:15.901Z,8.20
2019-02-25T04:53:15.906Z,8.19
2019-02-25T04:57:15.894Z,8.19
2019-02-25T05:03:15.901Z,8.14
2019-02-25T05:05:15.934Z,8.14
2019-02-25T05:11:15.899Z,8.11
2019-02-25T05:15:15.947Z,8.06
2019-02-25T05:17:20.509Z,8.08
2019-02-25T05:21:15.997Z,8.05
2019-02-25T05:23:15.940Z,8.04
2019-02-25T05:27:15.937Z,8.01
2019-02-25T05:29:15.923Z,8.02
2019-02-25T05:33:17.739Z,7.98
2019-02-25T05:35:16.027Z,7.97
2019-02-25T05:39:15.968Z,7.97
2019-02-25T05:41:15.958Z,7.94
2019-02-25T05:45:15.982Z,7.96
2019-02-25T05:47:15.983Z,7.90
2019-02-25T05:51:15.997Z,7.89
2019-02-25T05:53:18.289Z,7.92
2019-02-25T05:57:16.025Z,7.88
2019-02-25T05:59:16.022Z,7.86
2019-02-25T06:03:16.021Z,7.84
2019-02-25T06:05:16.028Z,7.83
2019-02-25T06:09:16.037Z,7.81
2019-02-25T06:11:16.035Z,7.80
2019-02-25T06:17:16.033Z,7.79
2019-02-25T06:19:16.059Z,7.76
2019-02-25T06:23:16.082Z,7.75
2019-02-25T06:25:16.129Z,7.77
2019-02-25T06:29:16.065Z,7.73
2019-02-25T06:31:16.069Z,7.69
2019-02-25T06:35:16.070Z,7.69
2019-02-25T06:37:16.095Z,7.69
2019-02-25T06:41:16.068Z,7.63
2019-02-25T06:43:16.078Z,7.63
2019-02-25T06:47:16.088Z,7.64
2019-02-25T06:49:16.110Z,7.62
2019-02-25T06:53:16.122Z,7.61
2019-02-25T06:55:16.097Z,7.61
2019-02-25T06:59:16.171Z,7.60
2019-02-25T07:01:16.160Z,7.58
2019-02-25T07:05:16.163Z,7.56
2019-02-25T07:07:16.147Z,7.53
2019-02-25T07:11:16.192Z,7.52
2019-02-25T07:13:16.203Z,7.50
2019-02-25T07:17:16.193Z,7.50
2019-02-25T07:19:16.198Z,7.51
2019-02-25T07:23:16.198Z,7.48
2019-02-25T07:25:16.213Z,7.49
2019-02-25T07:29:16.220Z,7.44
2019-02-25T07:31:16.212Z,7.43
2019-02-25T07:35:16.220Z,7.43
2019-02-25T07:37:16.229Z,7.43
2019-02-25T07:41:16.252Z,7.39
2019-02-25T07:43:16.280Z,7.40
2019-02-25T07:47:16.258Z,7.36
2019-02-25T07:49:16.259Z,7.37
2019-02-25T07:53:20.856Z,7.33
2019-02-25T07:55:20.713Z,7.35
2019-02-25T07:59:16.312Z,7.37
2019-02-25T08:01:16.304Z,7.34
2019-02-25T08:05:16.295Z,7.37
2019-02-25T08:07:16.312Z,7.38
2019-02-25T08:11:21.847Z,7.32
2019-02-25T08:13:21.507Z,7.36
2019-02-25T08:17:26.161Z,7.35
2019-02-25T08:19:16.307Z,7.37
2019-02-25T08:23:21.882Z,7.40
2019-02-25T08:25:25.343Z,7.38
2019-02-25T08:29:16.337Z,7.42
2019-02-25T08:31:16.341Z,7.44
2019-02-25T08:35:16.346Z,7.46
2019-02-25T08:37:21.344Z,7.47
2019-02-25T08:41:16.333Z,7.49
2019-02-25T08:43:16.407Z,7.53
2019-02-25T08:47:16.370Z,7.58
2019-02-25T08:49:17.239Z,7.59
2019-02-25T08:53:21.043Z,7.62
2019-02-25T08:55:16.394Z,7.65
2019-02-25T08:59:16.379Z,7.69
2019-02-25T09:01:20.754Z,7.71
2019-02-25T09:05:16.404Z,7.74
2019-02-25T09:07:16.395Z,7.76
2019-02-25T09:13:16.389Z,7.84
2019-02-25T09:15:16.394Z,7.85
2019-02-25T09:19:16.382Z,7.92
2019-02-25T09:21:16.415Z,7.93
2019-02-25T09:25:16.391Z,7.99
2019-02-25T09:27:16.421Z,8.04
2019-02-25T09:31:16.492Z,8.08
2019-02-25T09:33:16.399Z,8.12
2019-02-25T09:37:16.521Z,8.18
2019-02-25T09:39:16.908Z,8.22
2019-02-25T09:43:16.416Z,8.29
2019-02-25T09:45:21.344Z,8.33
2019-02-25T09:49:16.440Z,8.40
2019-02-25T09:51:21.393Z,8.43
2019-02-25T09:55:16.439Z,8.52
2019-02-25T09:57:16.425Z,8.55
2019-02-25T10:01:21.261Z,8.63
2019-02-25T10:03:16.451Z,8.66
2019-02-25T10:07:16.457Z,8.75
2019-02-25T10:09:16.490Z,8.81
2019-02-25T10:13:18.858Z,8.90
2019-02-25T10:15:21.045Z,8.94
2019-02-25T10:19:16.504Z,9.01
2019-02-25T10:21:16.476Z,9.05
2019-02-25T10:25:16.523Z,9.12
2019-02-25T10:27:16.546Z,9.15
2019-02-25T10:31:17.513Z,9.23
2019-02-25T10:33:16.555Z,9.27
2019-02-25T10:37:17.162Z,9.35
2019-02-25T10:39:17.928Z,9.39
2019-02-25T10:43:16.546Z,9.48
2019-02-25T10:45:16.599Z,9.52
2019-02-25T10:49:16.618Z,9.60
2019-02-25T10:51:21.261Z,9.64
2019-02-25T10:55:16.553Z,9.75
2019-02-25T10:57:16.596Z,9.78
2019-02-25T11:01:22.311Z,9.87
2019-02-25T11:03:18.011Z,9.92
2019-02-25T11:07:16.606Z,10.00
2019-02-25T11:09:18.082Z,10.05
2019-02-25T11:13:16.609Z,10.15
2019-02-25T11:15:16.611Z,10.21
2019-02-25T11:19:16.732Z,10.28
2019-02-25T11:21:16.641Z,10.33
2019-02-25T11:25:19.283Z,10.43
2019-02-25T11:27:16.626Z,10.49
2019-02-25T11:31:18.523Z,10.59
2019-02-25T11:33:16.692Z,10.66
2019-02-25T11:37:18.897Z,10.74
2019-02-25T11:39:16.648Z,10.79
2019-02-25T11:43:18.661Z,10.90
2019-02-25T11:45:16.960Z,10.94
2019-02-25T11:49:16.638Z,11.04
2019-02-25T11:51:16.673Z,11.09
2019-02-25T11:55:16.694Z,11.19
2019-02-25T11:57:21.368Z,11.23
2019-02-25T12:01:20.840Z,11.36
2019-02-25T12:03:16.677Z,11.40
2019-02-25T12:07:16.690Z,11.50
2019-02-25T12:09:16.699Z,11.54
2019-02-25T12:13:16.682Z,11.62
2019-02-25T12:15:16.714Z,11.68
2019-02-25T12:19:18.113Z,11.77
2019-02-25T12:21:16.675Z,11.82
2019-02-25T12:25:16.699Z,11.90
2019-02-25T12:27:21.766Z,11.94
2019-02-25T12:31:16.731Z,12.04
2019-02-25T12:33:16.712Z,12.09
2019-02-25T12:37:16.776Z,12.16
2019-02-25T12:39:23.444Z,12.22
2019-02-25T12:43:16.772Z,12.29
2019-02-25T12:45:16.796Z,12.32
2019-02-25T12:49:16.912Z,12.41
2019-02-25T12:51:21.979Z,12.43
2019-02-25T12:55:16.796Z,12.53
2019-02-25T12:57:21.428Z,12.55
2019-02-25T13:01:21.545Z,12.65
2019-02-25T13:03:16.808Z,12.66
2019-02-25T13:09:16.815Z,12.74
2019-02-25T13:11:21.799Z,12.77
2019-02-25T13:15:16.820Z,12.79
2019-02-25T13:17:26.376Z,12.81
2019-02-25T13:21:21.861Z,12.84
2019-02-25T13:23:16.842Z,12.87
2019-02-25T13:27:16.878Z,12.92
2019-02-25T13:29:16.831Z,12.93
2019-02-25T13:33:16.842Z,12.95
2019-02-25T13:35:21.842Z,12.95
2019-02-25T13:41:21.307Z,13.02
2019-02-25T13:43:16.864Z,13.02
2019-02-25T13:47:16.873Z,13.06
2019-02-25T13:49:16.877Z,13.05
2019-02-25T13:53:16.910Z,13.08
2019-02-25T13:55:21.472Z,13.08
2019-02-25T13:59:16.887Z,13.05
2019-02-25T14:01:23.707Z,13.06
2019-02-25T14:05:17.081Z,13.06
2019-02-25T14:07:16.911Z,13.05
2019-02-25T14:11:17.474Z,13.06
2019-02-25T14:13:16.926Z,13.05
2019-02-25T14:17:16.925Z,13.07
2019-02-25T14:19:21.438Z,13.13
2019-02-25T14:23:20.312Z,13.10
2019-02-25T14:25:21.359Z,13.09
2019-02-25T14:29:20.876Z,13.11
2019-02-25T14:31:16.957Z,13.11
2019-02-25T14:35:19.638Z,13.11
2019-02-25T14:37:18.197Z,13.13
2019-02-25T14:41:21.239Z,13.12
2019-02-25T14:43:22.667Z,13.12
2019-02-25T14:47:22.665Z,13.12
2019-02-25T14:49:19.639Z,13.11
2019-02-25T14:55:22.166Z,13.14
2019-02-25T14:57:20.384Z,13.13
2019-02-25T15:01:22.828Z,13.12
2019-02-25T15:03:20.478Z,13.12
2019-02-25T15:07:22.191Z,13.13
2019-02-25T15:09:22.159Z,13.13
2019-02-25T15:13:18.983Z,13.14
2019-02-25T15:15:17.126Z,13.13
2019-02-25T15:19:18.060Z,13.11
2019-02-25T15:21:18.636Z,13.11
2019-02-25T15:25:17.214Z,13.12
2019-02-25T15:27:18.747Z,13.13
2019-02-25T15:31:20.006Z,13.10
2019-02-25T15:33:20.560Z,13.12
2019-02-25T15:39:17.043Z,13.12
2019-02-25T15:41:19.678Z,13.10
2019-02-25T15:45:17.004Z,13.11
2019-02-25T15:47:19.954Z,13.12
2019-02-25T15:51:19.661Z,13.11
2019-02-25T15:53:17.027Z,13.10
2019-02-25T15:59:17.060Z,13.11
2019-02-25T16:01:17.070Z,13.11
2019-02-25T16:07:17.059Z,13.08
2019-02-25T16:09:19.328Z,13.08
2019-02-25T16:13:17.054Z,13.10
2019-02-25T16:15:17.419Z,13.07
2019-02-25T16:19:17.195Z,13.06
2019-02-25T16:21:21.465Z,13.06
2019-02-25T16:25:17.079Z,13.07
2019-02-25T16:27:19.002Z,13.07
2019-02-25T16:31:17.101Z,13.04
2019-02-25T16:33:17.096Z,13.02
2019-02-25T16:37:17.710Z,13.03
2019-02-25T16:39:17.271Z,13.02
2019-02-25T16:43:18.904Z,13.01
2019-02-25T16:45:21.506Z,13.01
2019-02-25T16:49:17.078Z,13.00
2019-02-25T16:51:19.295Z,13.00
2019-02-25T16:55:18.208Z,12.97
2019-02-25T16:57:18.484Z,12.97
2019-02-25T17:03:17.156Z,12.95
2019-02-25T17:05:22.125Z,12.94
2019-02-25T17:09:18.303Z,12.91
2019-02-25T17:11:17.998Z,12.91
2019-02-25T17:15:17.122Z,12.91
2019-02-25T17:17:17.163Z,12.90
2019-02-25T17:21:22.350Z,12.89
2019-02-25T17:23:17.157Z,12.88
2019-02-25T17:27:17.192Z,12.87
2019-02-25T17:29:17.989Z,12.85
2019-02-25T17:33:17.175Z,12.83
2019-02-25T17:35:18.801Z,12.83
2019-02-25T17:39:17.197Z,12.81
2019-02-25T17:41:17.156Z,12.82
2019-02-25T17:45:17.367Z,12.79
2019-02-25T17:47:24.011Z,12.78
2019-02-25T17:51:18.553Z,12.76
2019-02-25T17:53:17.207Z,12.75
2019-02-25T17:57:17.215Z,12.73
2019-02-25T17:59:17.202Z,12.73
2019-02-25T18:03:17.644Z,12.71
2019-02-25T18:05:19.113Z,12.69
2019-02-25T18:09:18.256Z,12.68
2019-02-25T18:11:18.404Z,12.67
2019-02-25T18:15:17.255Z,12.66
2019-02-25T18:17:19.315Z,12.63
2019-02-25T18:21:17.300Z,12.62
2019-02-25T18:23:17.267Z,12.61
2019-02-25T18:27:21.825Z,12.59
2019-02-25T18:29:18.606Z,12.57
2019-02-25T18:33:17.826Z,12.56
2019-02-25T18:35:22.855Z,12.55
2019-02-25T18:39:17.281Z,12.52
2019-02-25T18:41:17.255Z,12.52
2019-02-25T18:45:18.524Z,12.49
2019-02-25T18:47:18.448Z,12.49
2019-02-25T18:51:24.160Z,12.46
2019-02-25T18:53:18.787Z,12.44
2019-02-25T18:57:18.923Z,12.42
2019-02-25T18:59:26.431Z,12.42
2019-02-25T19:03:17.284Z,12.39
2019-02-25T19:07:55.481Z,12.38
2019-02-25T19:12:02.664Z,12.34
2019-02-25T19:14:15.368Z,12.32
2019-02-25T19:18:02.657Z,12.31
2019-02-25T19:20:02.713Z,12.30
2019-02-25T19:24:03.614Z,12.26
2019-02-25T19:26:12.995Z,12.26
2019-02-25T19:30:03.063Z,12.23
2019-02-25T19:32:07.708Z,12.22
2019-02-25T19:36:03.432Z,12.19
2019-02-25T19:38:03.666Z,12.18
2019-02-25T19:42:02.848Z,12.15
2019-02-25T19:44:08.065Z,12.15
2019-02-25T19:48:04.685Z,12.11
2019-02-25T19:52:07.983Z,12.09
2019-02-25T19:54:09.298Z,12.08
2019-02-25T19:58:02.730Z,12.06
2019-02-25T20:00:03.022Z,12.05
2019-02-25T20:04:06.199Z,12.02
2019-02-25T20:06:11.128Z,12.02
2019-02-25T20:10:05.168Z,11.99
2019-02-25T20:12:02.754Z,11.97
2019-02-25T20:16:07.862Z,11.95
2019-02-25T20:18:02.770Z,11.94
2019-02-25T20:22:02.770Z,11.92
2019-02-25T20:24:02.780Z,11.89
2019-02-25T20:28:04.315Z,11.88
2019-02-25T20:30:04.796Z,11.86
2019-02-25T20:34:02.793Z,11.84
2019-02-25T20:36:07.780Z,11.84
2019-02-25T20:40:02.815Z,11.77
2019-02-25T20:42:02.833Z,11.77
2019-02-25T20:46:04.055Z,11.74
2019-02-25T20:48:02.838Z,11.72
2019-02-25T20:52:02.816Z,11.68
2019-02-25T20:54:02.837Z,11.65
2019-02-25T20:58:02.859Z,11.63
2019-02-25T21:02:04.815Z,11.60
2019-02-25T21:04:13.424Z,11.59
2019-02-25T21:08:02.867Z,11.58
2019-02-25T21:10:07.285Z,11.57
2019-02-25T21:14:02.896Z,11.55
2019-02-25T21:16:10.365Z,11.54
2019-02-25T21:20:08.053Z,11.49
2019-02-25T21:22:04.529Z,11.47
2019-02-25T21:26:04.891Z,11.45
2019-02-25T21:28:09.101Z,11.44
2019-02-25T21:32:02.898Z,11.38
2019-02-25T21:34:02.891Z,11.39
2019-02-25T21:38:02.919Z,11.37
2019-02-25T21:40:04.719Z,11.35
2019-02-25T21:44:02.921Z,11.31
2019-02-25T21:46:07.885Z,11.32
2019-02-25T21:50:04.135Z,11.29
2019-02-25T21:52:06.101Z,11.27
2019-02-25T21:56:04.831Z,11.24
2019-02-25T21:58:04.851Z,11.24
2019-02-25T22:02:07.520Z,11.21
2019-02-25T22:04:02.971Z,11.19
2019-02-25T22:08:04.173Z,11.18
2019-02-25T22:10:02.962Z,11.17
2019-02-25T22:14:03.779Z,11.14
2019-02-25T22:16:03.558Z,11.11
2019-02-25T22:20:04.819Z,11.08
2019-02-25T22:22:06.978Z,11.08
2019-02-25T22:26:02.972Z,11.06
2019-02-25T22:28:03.387Z,11.04
2019-02-25T22:32:04.043Z,11.01
2019-02-25T22:34:02.978Z,11.00
2019-02-25T22:38:02.995Z,10.98
2019-02-25T22:40:02.999Z,10.97
2019-02-25T22:44:04.153Z,10.95
2019-02-25T22:46:04.788Z,10.94
2019-02-25T22:50:04.241Z,10.90
2019-02-25T22:52:08.023Z,10.90
2019-02-25T22:56:03.012Z,10.87
2019-02-25T22:58:08.814Z,10.87
2019-02-25T23:02:03.015Z,10.82
2019-02-25T23:04:03.073Z,10.81
2019-02-25T23:08:03.031Z,10.81
2019-02-25T23:10:03.024Z,10.78
2019-02-25T23:14:03.048Z,10.76
2019-02-25T23:16:03.044Z,10.77
2019-02-25T23:20:05.132Z,10.73
2019-02-25T23:22:03.080Z,10.71
2019-02-25T23:26:03.079Z,10.72
2019-02-25T23:28:03.107Z,10.68
2019-02-25T23:32:03.106Z,10.65
2019-02-25T23:34:05.617Z,10.66
2019-02-25T23:38:03.107Z,10.61
2019-02-25T23:40:09.643Z,10.61
2019-02-25T23:44:03.125Z,10.60
2019-02-25T23:46:04.573Z,10.57
2019-02-25T23:50:04.161Z,10.54
2019-02-25T23:52:03.122Z,10.55
2019-02-25T23:56:03.107Z,10.52
2019-02-25T23:58:10.269Z,10.52
